Kota Waris — S6RJ — position and weather

sailwx.info

Track history (hours):
 
Tides and Currents Weather Stations Pressure Air Temp Water Temp Dewpoint Dewpoint Depression Visibility Wind Speed Wind Dir Waves Ship Positions

Kota Waris

Last reported at 2017-Aug-15 21:46 UTC. Time now 2017-Aug-21 19:47 UTC.
Position N 01°14' E 104°03'.

Length 185 m; draft 8.4 m.

Type: Cargo ship. MMSI: 564482000.

Date/timePositionNaut miles runAvg speedWind from/ knotsBaromVisibWave heightAir tempDewpointWater temp
2017-Aug-15 21:46N 01°14' E 104°03'414.4
2017-Aug-15 21:30N 01°14' E 103°60'714.4
2017-Aug-15 21:00N 01°12' E 103°53'4 7.5
2017-Aug-15 20:30N 01°11' E 103°49'4 7.3
2017-Aug-15 20:00N 01°14' E 103°47'1 1.9
2017-Aug-15 19:28N 01°15' E 103°47'0 0.0
2017-Aug-15 18:56N 01°15' E 103°47'0 0.0
2017-Aug-15 18:26N 01°15' E 103°47'0 0.0
2017-Aug-15 17:58N 01°15' E 103°47'0 0.1
2017-Aug-15 17:19N 01°15' E 103°47'0 0.2
2017-Aug-15 16:59N 01°15' E 103°47'0 0.0
2017-Aug-15 16:25N 01°15' E 103°47'0 0.0
2017-Aug-15 15:58N 01°15' E 103°47'0 0.0
2017-Aug-15 15:28N 01°15' E 103°47'0 0.0
2017-Aug-15 14:58N 01°15' E 103°47'0 0.0
2017-Aug-15 14:01N 01°15' E 103°47'0 0.0
2017-Aug-15 13:55N 01°15' E 103°47'0 0.0
2017-Aug-15 13:28N 01°15' E 103°47'0 0.0
2017-Aug-15 12:55N 01°15' E 103°47'0 0.0
2017-Aug-15 12:28N 01°15' E 103°47'0 0.0
2017-Aug-15 11:50N 01°15' E 103°47'0 0.0
2017-Aug-15 11:26N 01°15' E 103°47'0 0.0
2017-Aug-15 10:56N 01°15' E 103°47'0 0.0
2017-Aug-15 10:25N 01°15' E 103°47'0 0.0
2017-Aug-15 09:59N 01°15' E 103°47'0 0.0
2017-Aug-15 09:26N 01°15' E 103°47'0 0.0
2017-Aug-15 08:58N 01°15' E 103°47'0 0.0
2017-Aug-15 08:25N 01°15' E 103°47'0 0.0
2017-Aug-15 07:43N 01°15' E 103°47'0 0.0
2017-Aug-15 07:29N 01°15' E 103°47'0 0.0
2017-Aug-15 06:55N 01°15' E 103°47'0 0.0
2017-Aug-15 06:25N 01°15' E 103°47'0 0.0
2017-Aug-15 05:58N 01°15' E 103°47'0 0.0
2017-Aug-15 05:29N 01°15' E 103°47'0 0.0
2017-Aug-15 04:53N 01°15' E 103°47'0 0.0
2017-Aug-15 04:28N 01°15' E 103°47'0 0.0
2017-Aug-15 04:01N 01°15' E 103°47'2 3.3
2017-Aug-15 03:30N 01°14' E 103°47'4 7.8
2017-Aug-15 03:00N 01°13' E 103°51'3 5.5
2017-Aug-15 02:31N 01°14' E 103°54'3 6.6
2017-Aug-15 02:00N 01°15' E 103°57'5 9.1
2017-Aug-15 01:30N 01°16' E 104°01'  
2017-Aug-09 07:51N 01°15' E 104°04'512.9
2017-Aug-09 07:28N 01°14' E 103°59'612.6
2017-Aug-09 07:00N 01°12' E 103°54'510.0
2017-Aug-09 06:30N 01°12' E 103°49'4 4.7
2017-Aug-09 05:45N 01°15' E 103°47'0 0.1
2017-Aug-09 05:30N 01°15' E 103°47'0 0.0
2017-Aug-09 05:00N 01°15' E 103°47'0 0.0
2017-Aug-09 04:30N 01°15' E 103°47'0 0.0
2017-Aug-09 04:01N 01°15' E 103°47'0 0.0
2017-Aug-09 03:30N 01°15' E 103°47'0 0.0
2017-Aug-09 03:00N 01°15' E 103°47'0 0.0
2017-Aug-09 02:30N 01°15' E 103°47'0 0.0
2017-Aug-09 02:00N 01°15' E 103°47'0 0.0
2017-Aug-09 01:27N 01°15' E 103°47'0 0.0
2017-Aug-09 01:00N 01°15' E 103°47'0 0.0
2017-Aug-09 00:30N 01°15' E 103°47'0 0.0
2017-Aug-08 23:57N 01°15' E 103°47'0 0.0
2017-Aug-08 23:30N 01°15' E 103°47'0 0.0
2017-Aug-08 22:57N 01°15' E 103°47'0 0.0
2017-Aug-08 22:27N 01°15' E 103°47'0 0.0
2017-Aug-08 22:00N 01°15' E 103°47'0 0.0
2017-Aug-08 21:30N 01°15' E 103°47'0 0.0
2017-Aug-08 21:00N 01°15' E 103°47'0 0.0
2017-Aug-08 20:30N 01°15' E 103°47'1 1.2
2017-Aug-08 19:59N 01°15' E 103°47'0 0.1
2017-Aug-08 19:29N 01°15' E 103°47'1 1.3
2017-Aug-08 18:59N 01°14' E 103°47'2 3.9
2017-Aug-08 18:30N 01°13' E 103°49'3 5.9
2017-Aug-08 18:00N 01°13' E 103°52'3 6.6
2017-Aug-08 17:30N 01°16' E 103°50'0 0.9
2017-Aug-08 16:59N 01°16' E 103°50'0 0.0
2017-Aug-08 16:29N 01°16' E 103°50'0 0.0
2017-Aug-08 15:59N 01°16' E 103°50'0 0.0
2017-Aug-08 15:23N 01°16' E 103°50'0 0.0
2017-Aug-08 14:32N 01°16' E 103°50'0 0.0
2017-Aug-08 14:23N 01°16' E 103°50'0 0.0
2017-Aug-08 13:59N 01°16' E 103°50'0 0.0
2017-Aug-08 13:29N 01°16' E 103°50'0 0.0
2017-Aug-08 12:53N 01°16' E 103°50'0 0.0
2017-Aug-08 12:29N 01°16' E 103°50'0 0.0
2017-Aug-08 11:59N 01°16' E 103°50'0 0.0
2017-Aug-08 11:29N 01°16' E 103°50'0 0.0
2017-Aug-08 10:59N 01°16' E 103°50'0 0.0
2017-Aug-08 10:29N 01°16' E 103°50'0 0.0
2017-Aug-08 09:59N 01°16' E 103°50'0 0.0
2017-Aug-08 09:29N 01°16' E 103°50'0 0.0
2017-Aug-08 08:53N 01°16' E 103°50'0 0.0
2017-Aug-08 08:29N 01°16' E 103°50'0 0.0
2017-Aug-08 07:53N 01°16' E 103°50'0 0.0
2017-Aug-08 07:29N 01°16' E 103°50'0 0.0
2017-Aug-08 06:59N 01°16' E 103°50'0 0.0
2017-Aug-08 06:26N 01°16' E 103°50'0 0.0
2017-Aug-08 05:59N 01°16' E 103°50'0 0.0
2017-Aug-08 05:29N 01°16' E 103°50'0 0.0
2017-Aug-08 04:59N 01°16' E 103°50'0 0.0
2017-Aug-08 04:30N 01°16' E 103°50'2 3.1
2017-Aug-08 04:00N 01°15' E 103°51'3 5.5
2017-Aug-08 03:30N 01°13' E 103°53'3 6.7
2017-Aug-08 03:00N 01°15' E 103°57'5 9.2
2017-Aug-08 02:27N 01°16' E 104°01'  
Track history (hours):
 
Tides and Currents Weather Stations Pressure Air Temp Water Temp Dewpoint Dewpoint Depression Visibility Wind Speed Wind Dir Waves Ship Positions

Kota Waris

Last reported at 2017-Aug-15 21:46 UTC. Time now 2017-Aug-21 19:47 UTC.
Position N 01°14' E 104°03'.

Length 185 m; draft 8.4 m.

Type: Cargo ship. MMSI: 564482000.

Date/timePositionNaut miles runAvg speedWind from/ knotsBaromVisibWave heightAir tempDewpointWater temp
2017-Aug-15 21:46N 01°14' E 104°03'414.4
2017-Aug-15 21:30N 01°14' E 103°60'714.4
2017-Aug-15 21:00N 01°12' E 103°53'4 7.5
2017-Aug-15 20:30N 01°11' E 103°49'4 7.3
2017-Aug-15 20:00N 01°14' E 103°47'1 1.9
2017-Aug-15 19:28N 01°15' E 103°47'0 0.0
2017-Aug-15 18:56N 01°15' E 103°47'0 0.0
2017-Aug-15 18:26N 01°15' E 103°47'0 0.0
2017-Aug-15 17:58N 01°15' E 103°47'0 0.1
2017-Aug-15 17:19N 01°15' E 103°47'0 0.2
2017-Aug-15 16:59N 01°15' E 103°47'0 0.0
2017-Aug-15 16:25N 01°15' E 103°47'0 0.0
2017-Aug-15 15:58N 01°15' E 103°47'0 0.0
2017-Aug-15 15:28N 01°15' E 103°47'0 0.0
2017-Aug-15 14:58N 01°15' E 103°47'0 0.0
2017-Aug-15 14:01N 01°15' E 103°47'0 0.0
2017-Aug-15 13:55N 01°15' E 103°47'0 0.0
2017-Aug-15 13:28N 01°15' E 103°47'0 0.0
2017-Aug-15 12:55N 01°15' E 103°47'0 0.0
2017-Aug-15 12:28N 01°15' E 103°47'0 0.0
2017-Aug-15 11:50N 01°15' E 103°47'0 0.0
2017-Aug-15 11:26N 01°15' E 103°47'0 0.0
2017-Aug-15 10:56N 01°15' E 103°47'0 0.0
2017-Aug-15 10:25N 01°15' E 103°47'0 0.0
2017-Aug-15 09:59N 01°15' E 103°47'0 0.0
2017-Aug-15 09:26N 01°15' E 103°47'0 0.0
2017-Aug-15 08:58N 01°15' E 103°47'0 0.0
2017-Aug-15 08:25N 01°15' E 103°47'0 0.0
2017-Aug-15 07:43N 01°15' E 103°47'0 0.0
2017-Aug-15 07:29N 01°15' E 103°47'0 0.0
2017-Aug-15 06:55N 01°15' E 103°47'0 0.0
2017-Aug-15 06:25N 01°15' E 103°47'0 0.0
2017-Aug-15 05:58N 01°15' E 103°47'0 0.0
2017-Aug-15 05:29N 01°15' E 103°47'0 0.0
2017-Aug-15 04:53N 01°15' E 103°47'0 0.0
2017-Aug-15 04:28N 01°15' E 103°47'0 0.0
2017-Aug-15 04:01N 01°15' E 103°47'2 3.3
2017-Aug-15 03:30N 01°14' E 103°47'4 7.8
2017-Aug-15 03:00N 01°13' E 103°51'3 5.5
2017-Aug-15 02:31N 01°14' E 103°54'3 6.6
2017-Aug-15 02:00N 01°15' E 103°57'5 9.1
2017-Aug-15 01:30N 01°16' E 104°01'  
2017-Aug-09 07:51N 01°15' E 104°04'512.9
2017-Aug-09 07:28N 01°14' E 103°59'612.6
2017-Aug-09 07:00N 01°12' E 103°54'510.0
2017-Aug-09 06:30N 01°12' E 103°49'4 4.7
2017-Aug-09 05:45N 01°15' E 103°47'0 0.1
2017-Aug-09 05:30N 01°15' E 103°47'0 0.0
2017-Aug-09 05:00N 01°15' E 103°47'0 0.0
2017-Aug-09 04:30N 01°15' E 103°47'0 0.0
2017-Aug-09 04:01N 01°15' E 103°47'0 0.0
2017-Aug-09 03:30N 01°15' E 103°47'0 0.0
2017-Aug-09 03:00N 01°15' E 103°47'0 0.0
2017-Aug-09 02:30N 01°15' E 103°47'0 0.0
2017-Aug-09 02:00N 01°15' E 103°47'0 0.0
2017-Aug-09 01:27N 01°15' E 103°47'0 0.0
2017-Aug-09 01:00N 01°15' E 103°47'0 0.0
2017-Aug-09 00:30N 01°15' E 103°47'0 0.0
2017-Aug-08 23:57N 01°15' E 103°47'0 0.0
2017-Aug-08 23:30N 01°15' E 103°47'0 0.0
2017-Aug-08 22:57N 01°15' E 103°47'0 0.0
2017-Aug-08 22:27N 01°15' E 103°47'0 0.0
2017-Aug-08 22:00N 01°15' E 103°47'0 0.0
2017-Aug-08 21:30N 01°15' E 103°47'0 0.0
2017-Aug-08 21:00N 01°15' E 103°47'0 0.0
2017-Aug-08 20:30N 01°15' E 103°47'1 1.2
2017-Aug-08 19:59N 01°15' E 103°47'0 0.1
2017-Aug-08 19:29N 01°15' E 103°47'1 1.3
2017-Aug-08 18:59N 01°14' E 103°47'2 3.9
2017-Aug-08 18:30N 01°13' E 103°49'3 5.9
2017-Aug-08 18:00N 01°13' E 103°52'3 6.6
2017-Aug-08 17:30N 01°16' E 103°50'0 0.9
2017-Aug-08 16:59N 01°16' E 103°50'0 0.0
2017-Aug-08 16:29N 01°16' E 103°50'0 0.0
2017-Aug-08 15:59N 01°16' E 103°50'0 0.0
2017-Aug-08 15:23N 01°16' E 103°50'0 0.0
2017-Aug-08 14:32N 01°16' E 103°50'0 0.0
2017-Aug-08 14:23N 01°16' E 103°50'0 0.0
2017-Aug-08 13:59N 01°16' E 103°50'0 0.0
2017-Aug-08 13:29N 01°16' E 103°50'0 0.0
2017-Aug-08 12:53N 01°16' E 103°50'0 0.0
2017-Aug-08 12:29N 01°16' E 103°50'0 0.0
2017-Aug-08 11:59N 01°16' E 103°50'0 0.0
2017-Aug-08 11:29N 01°16' E 103°50'0 0.0
2017-Aug-08 10:59N 01°16' E 103°50'0 0.0
2017-Aug-08 10:29N 01°16' E 103°50'0 0.0
2017-Aug-08 09:59N 01°16' E 103°50'0 0.0
2017-Aug-08 09:29N 01°16' E 103°50'0 0.0
2017-Aug-08 08:53N 01°16' E 103°50'0 0.0
2017-Aug-08 08:29N 01°16' E 103°50'0 0.0
2017-Aug-08 07:53N 01°16' E 103°50'0 0.0
2017-Aug-08 07:29N 01°16' E 103°50'0 0.0
2017-Aug-08 06:59N 01°16' E 103°50'0 0.0
2017-Aug-08 06:26N 01°16' E 103°50'0 0.0
2017-Aug-08 05:59N 01°16' E 103°50'0 0.0
2017-Aug-08 05:29N 01°16' E 103°50'0 0.0
2017-Aug-08 04:59N 01°16' E 103°50'0 0.0
2017-Aug-08 04:30N 01°16' E 103°50'2 3.1
2017-Aug-08 04:00N 01°15' E 103°51'3 5.5
2017-Aug-08 03:30N 01°13' E 103°53'3 6.7
2017-Aug-08 03:00N 01°15' E 103°57'5 9.2
2017-Aug-08 02:27N 01°16' E 104°01'  

Dump ship's entire track history